This is the latest recevied weather packets stored in our database for station/object IR3AS. If no packets are shown the sender has not sent any weather packets the latest 10 day(s).
| Time | Temp. | Humidity | Pressure | Rain* | Wind** | Luminosity | Snow |
|---|---|---|---|---|---|---|---|
| 1787675706 | 15° C | 82% | 866 hPa | 0 mm | - | - | - |
| 1787675405 | 15° C | 82% | 866.1 hPa | 0 mm | - | - | - |
| 1787675105 | 15° C | 83% | 865.8 hPa | 0 mm | - | - | - |
| 1787674805 | 14.44° C | 84% | 862.2 hPa | 0 mm | - | - | - |
| 1787674506 | 14.44° C | 83% | 865.6 hPa | 0 mm | - | - | - |
| 1787674205 | 14.44° C | 83% | 865.9 hPa | 0 mm | - | - | - |
| 1787673905 | 15° C | 81% | 861.7 hPa | 0 mm | - | - | - |
| 1787673606 | 15.56° C | 81% | 865.1 hPa | 0 mm | - | - | - |
| 1787673306 | 15.56° C | 83% | 864.6 hPa | 0 mm | - | - | - |
| 1787673005 | 15° C | 85% | 864.7 hPa | 0 mm | - | - | - |
| 1787672705 | 14.44° C | 86% | 865.4 hPa | 0 mm | - | - | - |
| 1787672405 | 13.89° C | 87% | 866 hPa | 0 mm | - | - | - |
| 1787672105 | 13.33° C | 87% | 865 hPa | 0 mm | - | - | - |
| 1787671805 | 13.33° C | 87% | 865.3 hPa | 0 mm | - | - | - |
| 1787671505 | 13.33° C | 88% | 863.9 hPa | 0 mm | - | - | - |
| 1787671205 | 12.78° C | 91% | 866.2 hPa | 0 mm | - | - | - |
| 1787670906 | 12.22° C | 91% | 866.5 hPa | 0 mm | - | - | - |
| 1787670606 | 11.67° C | 91% | 866.7 hPa | 0 mm | - | - | - |
| 1787670308 | 11.67° C | 90% | 866.8 hPa | 0 mm | - | - | - |
| 1787670005 | 11.67° C | 90% | 866.8 hPa | 0 mm | - | - | - |
| 1787669705 | 11.67° C | 90% | 867 hPa | 0 mm | - | - | - |
| 1787669405 | 11.67° C | 89% | 863.8 hPa | 0 mm | - | - | - |
| 1787669105 | 11.67° C | 90% | 864 hPa | 0 mm | - | - | - |
| 1787668805 | 12.22° C | 89% | 863.2 hPa | 0 mm | - | - | - |
| 1787668506 | 12.22° C | 89% | 862.6 hPa | 0 mm | - | - | - |
* Rain latest hour (hover to see other rain measurements)
** Current wind speed in m/s (hover to see current wind gust speed)